^^
Saratoga-Weather Station Historical Data
Daily Summary for April 14, 2021 Units:  Metric    English   Both
Daily Weekly Monthly Yearly Custom
  High: Low: Average:
Temperature: -1.1 °C -8.2 °C -5.6 °C
Dew Point: -7.8 °C -10.3 °C -9.1 °C
Humidity: 87% 60% 76%
Wind Speed: 11.3km/h 0km/h 1.9km/h
Wind Gust: 19.3km/h - -
Wind- - ESE
Pressure: 1037.6 hPa 1035.9 hPa -
Precipitation: 0.0 mm    
Historical Graphs
 
 
Tabular Data for April 14, 2021
Time Temperature Dew Point Pressure Wind Wind Speed Wind Gust Humidity Rainfall Rate (Hourly) solar
00:01 -4.8 °C -9.6 °C 1037.6 hPa ENE 11.1 km/h 11.3 km/h 69% 0.0 mm 0 W/m2
00:06 -4.7 °C -9.3 °C 1037.6 hPa Calm   4.8 km/h 70% 0.0 mm 0 W/m2
00:11 -4.8 °C -9.4 °C 1037.6 hPa East 11.3 km/h 11.3 km/h 70% 0.0 mm 0 W/m2
00:16 -4.8 °C -9.4 °C 1037.6 hPa SE 1.4 km/h 3.2 km/h 70% 0.0 mm 0 W/m2
00:21 -4.8 °C -9.4 °C 1037.2 hPa ESE 9.7 km/h 9.7 km/h 70% 0.0 mm 0 W/m2
00:26 -4.8 °C -9.4 °C 1036.9 hPa SSE 3.2 km/h 6.4 km/h 70% 0.0 mm 0 W/m2
00:31 -4.6 °C -9.2 °C 1036.9 hPa ESE 1.4 km/h 9.7 km/h 70% 0.0 mm 0 W/m2
00:36 -4.5 °C -9.1 °C 1036.6 hPa SE 6.4 km/h 12.9 km/h 70% 0.0 mm 0 W/m2
00:41 -4.4 °C -9.2 °C 1036.6 hPa ENE 7.9 km/h 19.3 km/h 69% 0.0 mm 0 W/m2
00:46 -4.3 °C -9.1 °C 1036.6 hPa SE 3.2 km/h 6.4 km/h 69% 0.0 mm 0 W/m2
00:51 -4.4 °C -9 °C 1036.6 hPa ESE 3.2 km/h 12.9 km/h 70% 0.0 mm 0 W/m2
00:56 -4.5 °C -9.1 °C 1036.6 hPa East 1.4 km/h 6.4 km/h 70% 0.0 mm 0 W/m2
01:01 -4.6 °C -9.2 °C 1036.2 hPa ENE 3.2 km/h 12.9 km/h 70% 0.0 mm 0 W/m2
01:06 -4.6 °C -9.2 °C 1036.2 hPa ESE 3.2 km/h 4.8 km/h 70% 0.0 mm 0 W/m2
01:11 -4.6 °C -9.1 °C 1036.2 hPa East 3.2 km/h 9.7 km/h 71% 0.0 mm 0 W/m2
01:16 -4.6 °C -9.1 °C 1036.2 hPa ESE 4.7 km/h 4.8 km/h 71% 0.0 mm 0 W/m2
01:21 -4.6 °C -9.1 °C 1036.2 hPa Calm   9.7 km/h 71% 0.0 mm 0 W/m2
01:26 -4.7 °C -9.2 °C 1036.2 hPa East 3.2 km/h 4.8 km/h 71% 0.0 mm 0 W/m2
01:31 -4.7 °C -9.2 °C 1036.2 hPa ESE 3.2 km/h 4.8 km/h 71% 0.0 mm 0 W/m2
01:36 -4.7 °C -9.2 °C 1036.6 hPa East 11.1 km/h 12.9 km/h 71% 0.0 mm 0 W/m2
01:41 -4.7 °C -9 °C 1036.6 hPa Calm   3.2 km/h 72% 0.0 mm 0 W/m2
01:46 -4.7 °C -9 °C 1036.6 hPa SE 3.2 km/h 16.1 km/h 72% 0.0 mm 0 W/m2
01:51 -4.7 °C -9 °C 1036.6 hPa East 3.2 km/h 3.2 km/h 72% 0.0 mm 0 W/m2
01:56 -4.7 °C -9 °C 1036.6 hPa ESE 1.4 km/h 14.5 km/h 72% 0.0 mm 0 W/m2
02:01 -4.8 °C -9.1 °C 1036.9 hPa Calm   1.6 km/h 72% 0.0 mm 0 W/m2
02:06 -4.9 °C -9 °C 1036.6 hPa Calm   3.2 km/h 73% 0.0 mm 0 W/m2
02:11 -5.1 °C -9.2 °C 1036.9 hPa SE 6.4 km/h 9.7 km/h 73% 0.0 mm 0 W/m2
02:16 -5.1 °C -9.2 °C 1036.9 hPa East 3.2 km/h 4.8 km/h 73% 0.0 mm 0 W/m2
02:21 -5.2 °C -9.1 °C 1037.2 hPa Calm     74% 0.0 mm 0 W/m2
02:26 -5.2 °C -9.1 °C 1037.2 hPa ESE 1.4 km/h 3.2 km/h 74% 0.0 mm 0 W/m2
02:31 -5.3 °C -9.2 °C 1037.2 hPa ESE 1.4 km/h 1.6 km/h 74% 0.0 mm 0 W/m2
02:36 -5.4 °C -9.3 °C 1037.2 hPa ESE 1.4 km/h 3.2 km/h 74% 0.0 mm 0 W/m2
02:41 -5.6 °C -9.3 °C 1037.6 hPa ESE 3.2 km/h 3.2 km/h 75% 0.0 mm 0 W/m2
02:46 -5.7 °C -9.3 °C 1037.6 hPa Calm   3.2 km/h 76% 0.0 mm 0 W/m2
02:52 -5.7 °C -9.3 °C 1037.6 hPa Calm     76% 0.0 mm 0 W/m2
02:57 -5.7 °C -9.3 °C 1037.6 hPa Calm     76% 0.0 mm 0 W/m2
03:02 -5.8 °C -9.3 °C 1037.6 hPa Calm   3.2 km/h 76% 0.0 mm 0 W/m2
03:07 -6 °C -9.4 °C 1037.6 hPa Calm     77% 0.0 mm 0 W/m2
03:12 -6.1 °C -9.5 °C 1037.6 hPa Calm   1.6 km/h 77% 0.0 mm 0 W/m2
03:17 -6.2 °C -9.4 °C 1037.6 hPa Calm     78% 0.0 mm 0 W/m2
03:22 -6.3 °C -9.5 °C 1037.6 hPa ESE 1.4 km/h 1.6 km/h 78% 0.0 mm 0 W/m2
03:27 -6.4 °C -9.4 °C 1037.6 hPa Calm   3.2 km/h 79% 0.0 mm 0 W/m2
03:32 -6.3 °C -9.3 °C 1037.6 hPa Calm   1.6 km/h 79% 0.0 mm 0 W/m2
03:37 -6.2 °C -9.2 °C 1037.6 hPa Calm   3.2 km/h 79% 0.0 mm 0 W/m2
03:42 -6.2 °C -9.2 °C 1037.2 hPa Calm   1.6 km/h 79% 0.0 mm 0 W/m2
03:47 -6.2 °C -9.2 °C 1037.2 hPa Calm   1.6 km/h 79% 0.0 mm 0 W/m2
03:52 -6.3 °C -9.3 °C 1037.2 hPa ESE 1.4 km/h 4.8 km/h 79% 0.0 mm 0 W/m2
03:57 -6.2 °C -9.2 °C 1037.2 hPa ESE 1.4 km/h 3.2 km/h 79% 0.0 mm 0 W/m2
04:02 -6.1 °C -9.1 °C 1036.9 hPa ESE 1.4 km/h 4.8 km/h 79% 0.0 mm 0 W/m2
04:07 -6.1 °C -9.3 °C 1036.9 hPa ESE 1.4 km/h 3.2 km/h 78% 0.0 mm 0 W/m2
04:12 -6.1 °C -9.1 °C 1036.9 hPa ESE 1.4 km/h 1.6 km/h 79% 0.0 mm 0 W/m2
04:17 -6.2 °C -9.2 °C 1036.6 hPa Calm   3.2 km/h 79% 0.0 mm 0 W/m2
04:22 -6.2 °C -9.2 °C 1036.6 hPa Calm     79% 0.0 mm 0 W/m2
04:27 -6.3 °C -9.3 °C 1036.9 hPa ESE 1.4 km/h 1.6 km/h 79% 0.0 mm 0 W/m2
04:32 -6.3 °C -9.3 °C 1036.9 hPa Calm   3.2 km/h 79% 0.0 mm 0 W/m2
04:37 -6.3 °C -9.3 °C 1036.9 hPa ESE 1.4 km/h 1.6 km/h 79% 0.0 mm 0 W/m2
04:42 -6.3 °C -9.3 °C 1036.9 hPa ESE 3.2 km/h 4.8 km/h 79% 0.0 mm 0 W/m2
04:47 -6.3 °C -9.3 °C 1036.9 hPa ESE 1.4 km/h 1.6 km/h 79% 0.0 mm 0 W/m2
04:52 -6.3 °C -9.3 °C 1036.9 hPa Calm   4.8 km/h 79% 0.0 mm 0 W/m2
04:57 -6.3 °C -9.3 °C 1036.9 hPa ESE 1.4 km/h 3.2 km/h 79% 0.0 mm 0 W/m2
05:02 -6.2 °C -9.2 °C 1036.9 hPa Calm   1.6 km/h 79% 0.0 mm 0 W/m2
05:07 -6.2 °C -9.2 °C 1036.9 hPa Calm   1.6 km/h 79% 0.0 mm 0 W/m2
05:12 -6.2 °C -9.2 °C 1036.9 hPa Calm   1.6 km/h 79% 0.0 mm 0 W/m2
05:17 -6.2 °C -9.2 °C 1036.9 hPa ESE 3.2 km/h 3.2 km/h 79% 0.0 mm 0 W/m2
05:22 -6.1 °C -9.3 °C 1036.9 hPa ESE 1.4 km/h 1.6 km/h 78% 0.0 mm 0 W/m2
05:27 -6.1 °C -9.3 °C 1036.6 hPa SE 1.4 km/h 3.2 km/h 78% 0.0 mm 0 W/m2
05:32 -6 °C -9.2 °C 1036.6 hPa Calm   3.2 km/h 78% 0.0 mm 0 W/m2
05:37 -6.1 °C -9.3 °C 1036.6 hPa East 4.7 km/h 6.4 km/h 78% 0.0 mm 0 W/m2
05:42 -6.1 °C -9.3 °C 1036.6 hPa East 1.4 km/h 4.8 km/h 78% 0.0 mm 0 W/m2
05:47 -6.1 °C -9.3 °C 1036.6 hPa East 1.4 km/h 3.2 km/h 78% 0.0 mm 0 W/m2
05:52 -6.1 °C -9.3 °C 1036.2 hPa Calm   3.2 km/h 78% 0.0 mm 0 W/m2
05:57 -6.2 °C -9.4 °C 1036.2 hPa ESE 1.4 km/h 4.8 km/h 78% 0.0 mm 0 W/m2
06:02 -6.3 °C -9.5 °C 1036.2 hPa Calm     78% 0.0 mm 0 W/m2
06:07 -6.4 °C -9.4 °C 1036.2 hPa Calm   4.8 km/h 79% 0.0 mm 0 W/m2
06:12 -6.5 °C -9.5 °C 1036.2 hPa ESE 1.4 km/h 1.6 km/h 79% 0.0 mm 0 W/m2
06:17 -6.7 °C -9.7 °C 1036.2 hPa Calm   3.2 km/h 79% 0.0 mm 0 W/m2
06:22 -6.7 °C -9.6 °C 1036.2 hPa Calm   1.6 km/h 80% 0.0 mm 0 W/m2
06:27 -6.8 °C -9.7 °C 1036.2 hPa Calm   3.2 km/h 80% 0.0 mm 0 W/m2
06:32 -7 °C -9.9 °C 1035.9 hPa Calm     80% 0.0 mm 0 W/m2
06:37 -7.2 °C -10.1 °C 1035.9 hPa Calm   3.2 km/h 80% 0.0 mm 0 W/m2
06:42 -7.3 °C -10 °C 1036.2 hPa Calm   3.2 km/h 81% 0.0 mm 0 W/m2
06:47 -7.5 °C -10.2 °C 1036.2 hPa Calm   3.2 km/h 81% 0.0 mm 0 W/m2
06:52 -7.7 °C -10.2 °C 1036.2 hPa Calm     82% 0.0 mm 0 W/m2
06:57 -7.8 °C -10.2 °C 1036.2 hPa Calm   3.2 km/h 83% 0.0 mm 0 W/m2
07:02 -7.8 °C -10.2 °C 1036.2 hPa Calm     83% 0.0 mm 0 W/m2
07:07 -7.9 °C -10.1 °C 1036.2 hPa Calm     84% 0.0 mm 0 W/m2
07:12 -8 °C -10.2 °C 1036.2 hPa Calm     84% 0.0 mm 0 W/m2
07:17 -8.1 °C -10.2 °C 1036.2 hPa Calm     85% 0.0 mm 0 W/m2
07:22 -8.2 °C -10.3 °C 1036.2 hPa Calm     85% 0.0 mm 0 W/m2
07:27 -8.2 °C -10.1 °C 1036.6 hPa Calm     86% 0.0 mm 0 W/m2
07:32 -8.2 °C -10.1 °C 1036.6 hPa Calm     86% 0.0 mm 0 W/m2
07:37 -8.2 °C -10.1 °C 1036.2 hPa Calm     86% 0.0 mm 0 W/m2
07:42 -8.1 °C -9.9 °C 1036.2 hPa Calm     87% 0.0 mm 5 W/m2
07:47 -8.1 °C -9.9 °C 1036.6 hPa Calm     87% 0.0 mm 5 W/m2
07:52 -8.1 °C -9.9 °C 1036.6 hPa Calm     87% 0.0 mm 9 W/m2
07:57 -8.1 °C -9.9 °C 1036.6 hPa Calm     87% 0.0 mm 12 W/m2
08:02 -8 °C -9.8 °C 1036.6 hPa Calm     87% 0.0 mm 14 W/m2
08:07 -7.9 °C -9.7 °C 1036.6 hPa Calm     87% 0.0 mm 18 W/m2
08:12 -7.7 °C -9.5 °C 1036.6 hPa Calm     87% 0.0 mm 21 W/m2
08:17 -7.6 °C -9.4 °C 1036.9 hPa Calm     87% 0.0 mm 26 W/m2
08:22 -7.5 °C -9.4 °C 1036.9 hPa Calm   1.6 km/h 86% 0.0 mm 30 W/m2
08:27 -7.4 °C -9.3 °C 1036.9 hPa Calm     86% 0.0 mm 37 W/m2
08:32 -7.2 °C -9.1 °C 1036.9 hPa Calm     86% 0.0 mm 54 W/m2
08:37 -7.1 °C -9 °C 1036.9 hPa Calm     86% 0.0 mm 62 W/m2
08:42 -6.8 °C -8.9 °C 1036.9 hPa Calm   1.6 km/h 85% 0.0 mm 67 W/m2
08:47 -6.7 °C -8.8 °C 1036.9 hPa SE 1.4 km/h 3.2 km/h 85% 0.0 mm 69 W/m2
08:53 -6.4 °C -8.7 °C 1037.2 hPa Calm   3.2 km/h 84% 0.0 mm 40 W/m2
08:58 -6.3 °C -8.7 °C 1037.2 hPa SE 3.2 km/h 4.8 km/h 83% 0.0 mm 35 W/m2
09:03 -6 °C -8.6 °C 1037.2 hPa ESE 3.2 km/h 4.8 km/h 82% 0.0 mm 32 W/m2
09:08 -5.7 °C -8.6 °C 1037.2 hPa Calm   4.8 km/h 80% 0.0 mm 26 W/m2
09:13 -5.6 °C -8.7 °C 1037.2 hPa East 1.4 km/h 4.8 km/h 79% 0.0 mm 26 W/m2
09:18 -5.5 °C -8.7 °C 1037.2 hPa ESE 1.4 km/h 3.2 km/h 78% 0.0 mm 28 W/m2
09:23 -5.4 °C -8.6 °C 1037.2 hPa ESE 3.2 km/h 4.8 km/h 78% 0.0 mm 81 W/m2
09:28 -5.2 °C -8.4 °C 1037.2 hPa ESE 1.4 km/h 3.2 km/h 78% 0.0 mm 199 W/m2
09:33 -4.8 °C -8.2 °C 1037.2 hPa ESE 1.4 km/h 4.8 km/h 77% 0.0 mm 221 W/m2
09:38 -4.3 °C -7.9 °C 1037.2 hPa ESE 3.2 km/h 4.8 km/h 76% 0.0 mm 243 W/m2
09:43 -4 °C -7.9 °C 1037.2 hPa East 3.2 km/h 4.8 km/h 74% 0.0 mm 243 W/m2
09:48 -3.8 °C -7.9 °C 1037.2 hPa East 3.2 km/h 4.8 km/h 73% 0.0 mm 211 W/m2
09:53 -3.6 °C -7.9 °C 1037.2 hPa East 1.4 km/h 8 km/h 72% 0.0 mm 200 W/m2
09:58 -3.3 °C -7.8 °C 1037.2 hPa ESE 1.4 km/h 4.8 km/h 71% 0.0 mm 243 W/m2
10:03 -3.2 °C -8.1 °C 1037.2 hPa East 3.2 km/h 6.4 km/h 69% 0.0 mm 244 W/m2
10:08 -2.9 °C -7.8 °C 1037.2 hPa ENE 3.2 km/h 6.4 km/h 69% 0.0 mm 271 W/m2
10:13 -2.8 °C -7.9 °C 1037.2 hPa SE 3.2 km/h 14.5 km/h 68% 0.0 mm 227 W/m2
10:18 -2.6 °C -7.9 °C 1037.2 hPa East 3.2 km/h 11.3 km/h 67% 0.0 mm 255 W/m2
10:23 -2.5 °C -7.8 °C 1037.2 hPa East 4.7 km/h 14.5 km/h 67% 0.0 mm 178 W/m2
10:28 -2.4 °C -7.9 °C 1036.9 hPa East 4.7 km/h 9.7 km/h 66% 0.0 mm 199 W/m2
10:33 -2.3 °C -7.8 °C 1036.9 hPa East 4.7 km/h 11.3 km/h 66% 0.0 mm 148 W/m2
10:38 -2.2 °C -7.9 °C 1036.9 hPa ENE 3.2 km/h 11.3 km/h 65% 0.0 mm 93 W/m2
10:43 -2.1 °C -8 °C 1036.9 hPa East 3.2 km/h 6.4 km/h 64% 0.0 mm 86 W/m2
10:48 -1.9 °C -8 °C 1036.9 hPa ESE 9.7 km/h 12.9 km/h 63% 0.0 mm 63 W/m2
10:53 -1.8 °C -8.1 °C 1036.9 hPa ESE 9.7 km/h 14.5 km/h 62% 0.0 mm 123 W/m2
10:58 -1.7 °C -8 °C 1036.9 hPa ESE 1.4 km/h 6.4 km/h 62% 0.0 mm 128 W/m2
11:03 -1.6 °C -8.1 °C 1036.9 hPa East 6.4 km/h 11.3 km/h 61% 0.0 mm 221 W/m2
11:08 -1.4 °C -7.9 °C 1036.9 hPa East 4.7 km/h 11.3 km/h 61% 0.0 mm 132 W/m2
11:13 -1.3 °C -7.9 °C 1036.9 hPa East 4.7 km/h 9.7 km/h 61% 0.0 mm 128 W/m2
11:18 -1.1 °C -7.9 °C 1036.9 hPa ESE 3.2 km/h 9.7 km/h 60% 0.0 mm 74 W/m2
Juneau County Weather
Compliments of Weather Underground - 4 mb